RYR12NV LICC-LIRZ
Flight info
| Callsign | RYR12NV |
|---|---|
| Flight time | 1h 6m |
| Altitude | 34000 |
| Route | BUDIN DCT DELER DCT TIBER Y106 GITOD |
| Aircraft | A320/M-SDE2FGHIJ1RWY/SB1 |
Departure
| Time | 2026-05-08 09:34 |
|---|---|
| Airport | Catania-Fontanarossa Airport (LICC) |
Arrival
| Time | 2026-05-08 10:40 |
|---|---|
| Airport | Perugia San Francesco d'Assisi – Umbria International Airport (LIRZ) |
| Time | Latitude | Longitude | Altitude | Speed | Heading |
|---|---|---|---|---|---|
| 2026-05-08 09:07 | 37.46962 | 15.06474 | 37 ft | 0 kts | 21° |
| 2026-05-08 09:25 | 37.46956 | 15.06471 | 37 ft | 2 kts | 21° |
| 2026-05-08 09:25 | 37.46942 | 15.06464 | 37 ft | 2 kts | 21° |
| 2026-05-08 09:26 | 37.46928 | 15.06457 | 36 ft | 2 kts | 21° |
| 2026-05-08 09:26 | 37.46914 | 15.06451 | 35 ft | 2 kts | 21° |
| 2026-05-08 09:26 | 37.46900 | 15.06444 | 34 ft | 2 kts | 21° |
| 2026-05-08 09:26 | 37.46886 | 15.06438 | 34 ft | 2 kts | 11° |
| 2026-05-08 09:27 | 37.46870 | 15.06435 | 33 ft | 2 kts | 5° |
| 2026-05-08 09:27 | 37.46856 | 15.06435 | 32 ft | 2 kts | 357° |
| 2026-05-08 09:27 | 37.46841 | 15.06436 | 32 ft | 2 kts | 17° |
| 2026-05-08 09:27 | 37.46828 | 15.06426 | 32 ft | 2 kts | 54° |
| 2026-05-08 09:28 | 37.46823 | 15.06409 | 32 ft | 1 kts | 90° |
| 2026-05-08 09:28 | 37.46823 | 15.06402 | 32 ft | 0 kts | 89° |
| 2026-05-08 09:29 | 37.46826 | 15.06441 | 32 ft | 9 kts | 84° |
| 2026-05-08 09:30 | 37.46834 | 15.06534 | 32 ft | 10 kts | 84° |
| 2026-05-08 09:30 | 37.46842 | 15.06626 | 33 ft | 10 kts | 83° |
| 2026-05-08 09:30 | 37.46850 | 15.06722 | 34 ft | 11 kts | 84° |
| 2026-05-08 09:30 | 37.46859 | 15.06830 | 32 ft | 13 kts | 84° |
| 2026-05-08 09:31 | 37.46870 | 15.06960 | 31 ft | 15 kts | 84° |
| 2026-05-08 09:31 | 37.46881 | 15.07098 | 33 ft | 14 kts | 84° |
| 2026-05-08 09:31 | 37.46891 | 15.07216 | 37 ft | 12 kts | 84° |
| 2026-05-08 09:31 | 37.46901 | 15.07324 | 39 ft | 12 kts | 83° |
| 2026-05-08 09:32 | 37.46910 | 15.07432 | 40 ft | 12 kts | 84° |
| 2026-05-08 09:32 | 37.46919 | 15.07543 | 41 ft | 13 kts | 84° |
| 2026-05-08 09:32 | 37.46929 | 15.07660 | 41 ft | 14 kts | 84° |
| 2026-05-08 09:32 | 37.46940 | 15.07793 | 39 ft | 16 kts | 84° |
| 2026-05-08 09:33 | 37.46952 | 15.07940 | 38 ft | 17 kts | 84° |
| 2026-05-08 09:33 | 37.46947 | 15.08054 | 37 ft | 11 kts | 123° |
| 2026-05-08 09:33 | 37.46871 | 15.08090 | 38 ft | 11 kts | 173° |
| 2026-05-08 09:33 | 37.46806 | 15.08075 | 39 ft | 9 kts | 233° |
| 2026-05-08 09:34 | 37.46791 | 15.07958 | 40 ft | 33 kts | 263° |
| 2026-05-08 09:34 | 37.46740 | 15.07346 | 37 ft | 103 kts | 263° |
| 2026-05-08 09:34 | 37.46641 | 15.06202 | 65 ft | 155 kts | 264° |
| 2026-05-08 09:34 | 37.46536 | 15.04884 | 685 ft | 152 kts | 265° |
| 2026-05-08 09:35 | 37.46431 | 15.03547 | 1321 ft | 155 kts | 266° |
| 2026-05-08 09:35 | 37.46320 | 15.02199 | 1960 ft | 154 kts | 266° |
| 2026-05-08 09:35 | 37.46210 | 15.00854 | 2487 ft | 155 kts | 266° |
| 2026-05-08 09:35 | 37.46098 | 14.99508 | 3008 ft | 157 kts | 266° |
| 2026-05-08 09:36 | 37.45983 | 14.98122 | 3476 ft | 164 kts | 266° |
| 2026-05-08 09:36 | 37.45860 | 14.96634 | 3830 ft | 180 kts | 265° |
| 2026-05-08 09:36 | 37.45719 | 14.94975 | 4143 ft | 202 kts | 265° |
| 2026-05-08 09:36 | 37.45561 | 14.93136 | 4581 ft | 220 kts | 264° |
| 2026-05-08 09:37 | 37.45388 | 14.91159 | 5164 ft | 233 kts | 264° |
| 2026-05-08 09:37 | 37.45213 | 14.89154 | 5975 ft | 236 kts | 263° |
| 2026-05-08 09:37 | 37.45033 | 14.87111 | 6898 ft | 235 kts | 263° |
| 2026-05-08 09:37 | 37.44854 | 14.85106 | 7831 ft | 232 kts | 263° |
| 2026-05-08 09:38 | 37.44677 | 14.83112 | 8741 ft | 231 kts | 263° |
| 2026-05-08 09:38 | 37.44503 | 14.81145 | 9592 ft | 230 kts | 264° |
| 2026-05-08 09:38 | 37.44511 | 14.79157 | 10417 ft | 231 kts | 280° |
| 2026-05-08 09:38 | 37.45173 | 14.77329 | 11117 ft | 242 kts | 301° |
| 2026-05-08 09:39 | 37.46453 | 14.75885 | 11764 ft | 259 kts | 323° |
| 2026-05-08 09:39 | 37.48226 | 14.75188 | 12353 ft | 279 kts | 344° |
| 2026-05-08 09:39 | 37.50165 | 14.74911 | 12981 ft | 284 kts | 345° |
| 2026-05-08 09:39 | 37.52156 | 14.74639 | 13602 ft | 288 kts | 345° |
| 2026-05-08 09:40 | 37.54144 | 14.74373 | 14232 ft | 290 kts | 345° |
| 2026-05-08 09:40 | 37.56163 | 14.74099 | 14655 ft | 301 kts | 345° |
| 2026-05-08 09:40 | 37.58323 | 14.73796 | 14940 ft | 317 kts | 345° |
| 2026-05-08 09:40 | 37.60548 | 14.73487 | 15250 ft | 330 kts | 345° |
| 2026-05-08 09:41 | 37.62862 | 14.73178 | 15827 ft | 334 kts | 345° |
| 2026-05-08 09:41 | 37.65153 | 14.72877 | 16424 ft | 337 kts | 345° |
| 2026-05-08 09:41 | 37.67489 | 14.72567 | 17044 ft | 338 kts | 344° |
| 2026-05-08 09:41 | 37.69840 | 14.72253 | 17629 ft | 341 kts | 344° |
| 2026-05-08 09:42 | 37.72210 | 14.71929 | 18223 ft | 343 kts | 344° |
| 2026-05-08 09:42 | 37.74560 | 14.71609 | 18832 ft | 344 kts | 344° |
| 2026-05-08 09:42 | 37.76887 | 14.71052 | 19415 ft | 334 kts | 333° |
| 2026-05-08 09:42 | 37.79067 | 14.70091 | 20003 ft | 331 kts | 329° |
| 2026-05-08 09:43 | 37.81205 | 14.69074 | 20519 ft | 334 kts | 329° |
| 2026-05-08 09:43 | 37.83391 | 14.68043 | 21022 ft | 337 kts | 330° |
| 2026-05-08 09:43 | 37.85610 | 14.67015 | 21547 ft | 340 kts | 330° |
| 2026-05-08 09:43 | 37.87825 | 14.66007 | 22082 ft | 341 kts | 330° |
| 2026-05-08 09:44 | 37.90045 | 14.65009 | 22605 ft | 342 kts | 330° |
| 2026-05-08 09:44 | 37.92303 | 14.64001 | 23061 ft | 345 kts | 330° |
| 2026-05-08 09:44 | 37.94590 | 14.62982 | 23528 ft | 348 kts | 330° |
| 2026-05-08 09:44 | 37.96855 | 14.61974 | 24041 ft | 349 kts | 330° |
| 2026-05-08 09:45 | 37.99162 | 14.60953 | 24522 ft | 350 kts | 330° |
| 2026-05-08 09:45 | 38.01458 | 14.59936 | 24927 ft | 353 kts | 330° |
| 2026-05-08 09:45 | 38.03791 | 14.58901 | 25393 ft | 355 kts | 330° |
| 2026-05-08 09:45 | 38.06106 | 14.57876 | 25834 ft | 356 kts | 330° |
| 2026-05-08 09:46 | 38.08458 | 14.56831 | 26248 ft | 358 kts | 330° |
| 2026-05-08 09:46 | 38.10824 | 14.55780 | 26673 ft | 360 kts | 331° |
| 2026-05-08 09:46 | 38.13168 | 14.54738 | 27063 ft | 362 kts | 331° |
| 2026-05-08 09:46 | 38.15568 | 14.53673 | 27440 ft | 365 kts | 330° |
| 2026-05-08 09:47 | 38.17978 | 14.52602 | 27825 ft | 367 kts | 331° |
| 2026-05-08 09:47 | 38.20369 | 14.51539 | 28227 ft | 368 kts | 330° |
| 2026-05-08 09:47 | 38.22799 | 14.50458 | 28573 ft | 370 kts | 331° |
| 2026-05-08 09:47 | 38.25215 | 14.49380 | 28901 ft | 373 kts | 330° |
| 2026-05-08 09:48 | 38.27685 | 14.48278 | 29276 ft | 374 kts | 331° |
| 2026-05-08 09:48 | 38.30125 | 14.47191 | 29644 ft | 375 kts | 331° |
| 2026-05-08 09:48 | 38.32601 | 14.46087 | 30014 ft | 376 kts | 331° |
| 2026-05-08 09:48 | 38.35065 | 14.44987 | 30341 ft | 377 kts | 331° |
| 2026-05-08 09:49 | 38.37529 | 14.43886 | 30691 ft | 378 kts | 331° |
| 2026-05-08 09:49 | 38.40029 | 14.42769 | 30978 ft | 380 kts | 331° |
| 2026-05-08 09:49 | 38.42542 | 14.41641 | 31275 ft | 382 kts | 331° |
| 2026-05-08 09:49 | 38.45027 | 14.40528 | 31565 ft | 383 kts | 331° |
| 2026-05-08 09:50 | 38.47530 | 14.39406 | 31835 ft | 385 kts | 331° |
| 2026-05-08 09:50 | 38.50062 | 14.38268 | 32148 ft | 385 kts | 331° |
| 2026-05-08 09:50 | 38.52598 | 14.37132 | 32493 ft | 385 kts | 332° |
| 2026-05-08 09:50 | 38.55123 | 14.35999 | 32795 ft | 385 kts | 332° |
| 2026-05-08 09:51 | 38.57631 | 14.34871 | 33076 ft | 386 kts | 331° |
| 2026-05-08 09:51 | 38.60176 | 14.33726 | 33416 ft | 385 kts | 331° |
| 2026-05-08 09:51 | 38.62678 | 14.32598 | 33702 ft | 386 kts | 332° |
| 2026-05-08 09:51 | 38.65218 | 14.31452 | 33924 ft | 387 kts | 331° |
| 2026-05-08 09:52 | 38.67764 | 14.30306 | 33938 ft | 388 kts | 332° |
| 2026-05-08 09:52 | 38.72843 | 14.28017 | 33940 ft | 387 kts | 332° |
| 2026-05-08 09:53 | 38.77892 | 14.25735 | 33938 ft | 388 kts | 331° |
| 2026-05-08 09:53 | 38.82994 | 14.23423 | 33932 ft | 387 kts | 331° |
| 2026-05-08 09:54 | 38.88070 | 14.21120 | 33934 ft | 388 kts | 332° |
| 2026-05-08 09:54 | 38.93151 | 14.18814 | 33937 ft | 389 kts | 332° |
| 2026-05-08 09:55 | 38.98215 | 14.16508 | 33938 ft | 388 kts | 332° |
| 2026-05-08 09:55 | 39.03307 | 14.14189 | 33940 ft | 386 kts | 332° |
| 2026-05-08 09:56 | 39.08382 | 14.11872 | 33940 ft | 389 kts | 332° |
| 2026-05-08 09:56 | 39.13495 | 14.09534 | 33942 ft | 390 kts | 332° |
| 2026-05-08 09:57 | 39.21125 | 14.06041 | 33943 ft | 390 kts | 332° |
| 2026-05-08 09:57 | 39.26243 | 14.03691 | 33941 ft | 390 kts | 332° |
| 2026-05-08 09:58 | 39.31334 | 14.01353 | 33939 ft | 390 kts | 332° |
| 2026-05-08 09:58 | 39.36470 | 13.98990 | 33944 ft | 391 kts | 333° |
| 2026-05-08 09:59 | 39.41592 | 13.96629 | 33941 ft | 391 kts | 332° |
| 2026-05-08 09:59 | 39.46684 | 13.94277 | 33943 ft | 391 kts | 333° |
| 2026-05-08 10:00 | 39.51823 | 13.91901 | 33944 ft | 392 kts | 333° |
| 2026-05-08 10:00 | 39.56952 | 13.89523 | 33939 ft | 394 kts | 333° |
| 2026-05-08 10:01 | 39.62135 | 13.87124 | 33942 ft | 394 kts | 333° |
| 2026-05-08 10:01 | 39.67258 | 13.84743 | 33943 ft | 394 kts | 334° |
| 2026-05-08 10:02 | 39.72436 | 13.82330 | 33945 ft | 396 kts | 334° |
| 2026-05-08 10:02 | 39.77616 | 13.79917 | 33944 ft | 398 kts | 334° |
| 2026-05-08 10:03 | 39.82817 | 13.77492 | 33951 ft | 396 kts | 334° |
| 2026-05-08 10:03 | 39.88007 | 13.75066 | 33955 ft | 396 kts | 334° |
| 2026-05-08 10:04 | 39.93198 | 13.72632 | 33958 ft | 399 kts | 334° |
| 2026-05-08 10:04 | 39.98426 | 13.70184 | 33956 ft | 399 kts | 334° |
| 2026-05-08 10:05 | 40.03640 | 13.67733 | 33965 ft | 400 kts | 334° |
| 2026-05-08 10:05 | 40.08869 | 13.65272 | 33960 ft | 401 kts | 334° |
| 2026-05-08 10:06 | 40.14102 | 13.62805 | 33968 ft | 401 kts | 335° |
| 2026-05-08 10:06 | 40.19353 | 13.60327 | 33964 ft | 401 kts | 335° |
| 2026-05-08 10:07 | 40.24605 | 13.57843 | 33960 ft | 403 kts | 335° |
| 2026-05-08 10:07 | 40.29887 | 13.55340 | 33957 ft | 403 kts | 335° |
| 2026-05-08 10:08 | 40.35124 | 13.52856 | 33960 ft | 402 kts | 335° |
| 2026-05-08 10:08 | 40.40391 | 13.50354 | 33962 ft | 404 kts | 335° |
| 2026-05-08 10:09 | 40.45668 | 13.47841 | 33961 ft | 405 kts | 335° |
| 2026-05-08 10:09 | 40.50982 | 13.45308 | 33965 ft | 405 kts | 335° |
| 2026-05-08 10:10 | 40.56243 | 13.42796 | 33960 ft | 405 kts | 335° |
| 2026-05-08 10:10 | 40.61559 | 13.40250 | 33954 ft | 406 kts | 335° |
| 2026-05-08 10:11 | 40.66854 | 13.37712 | 33960 ft | 405 kts | 335° |
| 2026-05-08 10:11 | 40.72160 | 13.35166 | 33953 ft | 407 kts | 335° |
| 2026-05-08 10:12 | 40.77455 | 13.32618 | 33959 ft | 407 kts | 335° |
| 2026-05-08 10:12 | 40.82786 | 13.30050 | 33953 ft | 407 kts | 335° |
| 2026-05-08 10:13 | 40.88113 | 13.27480 | 33963 ft | 407 kts | 335° |
| 2026-05-08 10:13 | 40.93426 | 13.24914 | 33951 ft | 407 kts | 335° |
| 2026-05-08 10:14 | 40.98708 | 13.22357 | 33956 ft | 407 kts | 335° |
| 2026-05-08 10:14 | 41.04038 | 13.19770 | 33961 ft | 407 kts | 335° |
| 2026-05-08 10:15 | 41.09358 | 13.17184 | 33961 ft | 408 kts | 335° |
| 2026-05-08 10:15 | 41.14688 | 13.14590 | 33947 ft | 409 kts | 335° |
| 2026-05-08 10:16 | 41.20052 | 13.11973 | 33775 ft | 412 kts | 335° |
| 2026-05-08 10:16 | 41.22728 | 13.10666 | 33511 ft | 411 kts | 335° |
| 2026-05-08 10:16 | 41.25394 | 13.09363 | 33252 ft | 409 kts | 335° |
| 2026-05-08 10:17 | 41.28079 | 13.08051 | 33000 ft | 407 kts | 335° |
| 2026-05-08 10:17 | 41.30726 | 13.06753 | 32767 ft | 406 kts | 336° |
| 2026-05-08 10:17 | 41.33415 | 13.05434 | 32495 ft | 407 kts | 336° |
| 2026-05-08 10:17 | 41.36063 | 13.04136 | 32241 ft | 409 kts | 336° |
| 2026-05-08 10:18 | 41.38766 | 13.02810 | 31921 ft | 410 kts | 336° |
| 2026-05-08 10:18 | 41.41454 | 13.01487 | 31480 ft | 412 kts | 336° |
| 2026-05-08 10:18 | 41.44135 | 13.00168 | 30965 ft | 411 kts | 336° |
| 2026-05-08 10:18 | 41.46825 | 12.98847 | 30537 ft | 406 kts | 336° |
| 2026-05-08 10:19 | 41.49452 | 12.97556 | 30073 ft | 403 kts | 337° |
| 2026-05-08 10:19 | 41.52102 | 12.96252 | 29579 ft | 400 kts | 336° |
| 2026-05-08 10:19 | 41.54720 | 12.94964 | 29124 ft | 397 kts | 336° |
| 2026-05-08 10:20 | 41.59846 | 12.92431 | 28236 ft | 390 kts | 336° |
| 2026-05-08 10:20 | 41.62378 | 12.91176 | 27785 ft | 387 kts | 337° |
| 2026-05-08 10:20 | 41.64904 | 12.89926 | 27336 ft | 384 kts | 337° |
| 2026-05-08 10:20 | 41.67422 | 12.88680 | 26886 ft | 381 kts | 336° |
| 2026-05-08 10:21 | 41.69884 | 12.87460 | 26454 ft | 378 kts | 337° |
| 2026-05-08 10:21 | 41.72352 | 12.86232 | 26017 ft | 375 kts | 337° |
| 2026-05-08 10:21 | 41.74789 | 12.85023 | 25591 ft | 372 kts | 337° |
| 2026-05-08 10:21 | 41.77201 | 12.83823 | 25169 ft | 369 kts | 337° |
| 2026-05-08 10:22 | 41.79597 | 12.82631 | 24755 ft | 366 kts | 337° |
| 2026-05-08 10:22 | 41.81964 | 12.81454 | 24332 ft | 364 kts | 337° |
| 2026-05-08 10:22 | 41.84327 | 12.80275 | 23897 ft | 361 kts | 337° |
| 2026-05-08 10:22 | 41.86673 | 12.79105 | 23468 ft | 358 kts | 337° |
| 2026-05-08 10:23 | 41.89013 | 12.77938 | 23048 ft | 356 kts | 337° |
| 2026-05-08 10:23 | 41.91333 | 12.76779 | 22625 ft | 354 kts | 337° |
| 2026-05-08 10:23 | 41.93646 | 12.75622 | 22196 ft | 353 kts | 337° |
| 2026-05-08 10:23 | 41.95932 | 12.74478 | 21771 ft | 351 kts | 337° |
| 2026-05-08 10:24 | 41.98211 | 12.73336 | 21349 ft | 350 kts | 338° |
| 2026-05-08 10:24 | 42.00480 | 12.72199 | 20930 ft | 349 kts | 338° |
| 2026-05-08 10:24 | 42.02774 | 12.71049 | 20501 ft | 348 kts | 338° |
| 2026-05-08 10:24 | 42.05039 | 12.69913 | 20076 ft | 347 kts | 338° |
| 2026-05-08 10:25 | 42.07297 | 12.68778 | 19651 ft | 347 kts | 338° |
| 2026-05-08 10:25 | 42.09568 | 12.67637 | 19228 ft | 347 kts | 338° |
| 2026-05-08 10:25 | 42.11799 | 12.66517 | 18803 ft | 346 kts | 338° |
| 2026-05-08 10:25 | 42.14057 | 12.65380 | 18362 ft | 346 kts | 338° |
| 2026-05-08 10:26 | 42.16317 | 12.64241 | 17923 ft | 346 kts | 338° |
| 2026-05-08 10:26 | 42.18581 | 12.63098 | 17481 ft | 346 kts | 338° |
| 2026-05-08 10:26 | 42.20825 | 12.61963 | 17054 ft | 346 kts | 339° |
| 2026-05-08 10:26 | 42.23087 | 12.60820 | 16617 ft | 346 kts | 339° |
| 2026-05-08 10:27 | 42.25345 | 12.59678 | 16179 ft | 346 kts | 339° |
| 2026-05-08 10:27 | 42.27586 | 12.58522 | 15758 ft | 345 kts | 339° |
| 2026-05-08 10:27 | 42.29831 | 12.57355 | 15336 ft | 344 kts | 340° |
| 2026-05-08 10:27 | 42.32040 | 12.56205 | 14918 ft | 343 kts | 340° |
| 2026-05-08 10:28 | 42.34266 | 12.55046 | 14506 ft | 341 kts | 340° |
| 2026-05-08 10:28 | 42.36474 | 12.53898 | 14082 ft | 340 kts | 341° |
| 2026-05-08 10:28 | 42.38679 | 12.52751 | 13666 ft | 339 kts | 341° |
| 2026-05-08 10:28 | 42.40870 | 12.51611 | 13240 ft | 337 kts | 341° |
| 2026-05-08 10:29 | 42.43071 | 12.50467 | 12815 ft | 336 kts | 341° |
| 2026-05-08 10:29 | 42.45219 | 12.49349 | 12405 ft | 334 kts | 341° |
| 2026-05-08 10:29 | 42.47386 | 12.48220 | 11981 ft | 332 kts | 341° |
| 2026-05-08 10:29 | 42.49569 | 12.47082 | 11571 ft | 331 kts | 341° |
| 2026-05-08 10:30 | 42.51701 | 12.45968 | 11147 ft | 330 kts | 341° |
| 2026-05-08 10:30 | 42.53836 | 12.44852 | 10725 ft | 328 kts | 341° |
| 2026-05-08 10:30 | 42.55962 | 12.43741 | 10315 ft | 326 kts | 341° |
| 2026-05-08 10:30 | 42.58053 | 12.42646 | 10014 ft | 320 kts | 341° |
| 2026-05-08 10:31 | 42.60095 | 12.41575 | 9820 ft | 311 kts | 341° |
| 2026-05-08 10:31 | 42.62065 | 12.40541 | 9451 ft | 299 kts | 341° |
| 2026-05-08 10:31 | 42.63981 | 12.39537 | 9074 ft | 294 kts | 341° |
| 2026-05-08 10:31 | 42.65894 | 12.38533 | 8706 ft | 291 kts | 341° |
| 2026-05-08 10:32 | 42.67772 | 12.37547 | 8355 ft | 290 kts | 341° |
| 2026-05-08 10:32 | 42.69646 | 12.36562 | 7997 ft | 289 kts | 341° |
| 2026-05-08 10:32 | 42.71522 | 12.35575 | 7627 ft | 288 kts | 340° |
| 2026-05-08 10:32 | 42.73401 | 12.34588 | 7256 ft | 287 kts | 339° |
| 2026-05-08 10:33 | 42.75255 | 12.33612 | 6895 ft | 287 kts | 339° |
| 2026-05-08 10:33 | 42.77117 | 12.32631 | 6525 ft | 287 kts | 339° |
| 2026-05-08 10:33 | 42.79004 | 12.31764 | 6132 ft | 286 kts | 351° |
| 2026-05-08 10:33 | 42.80936 | 12.32043 | 5791 ft | 280 kts | 25° |
| 2026-05-08 10:34 | 42.82487 | 12.33566 | 5551 ft | 271 kts | 43° |
| 2026-05-08 10:34 | 42.83871 | 12.35256 | 5463 ft | 251 kts | 41° |
| 2026-05-08 10:34 | 42.85142 | 12.36748 | 5449 ft | 230 kts | 40° |
| 2026-05-08 10:34 | 42.86339 | 12.38123 | 5240 ft | 228 kts | 40° |
| 2026-05-08 10:35 | 42.87582 | 12.39534 | 4866 ft | 232 kts | 39° |
| 2026-05-08 10:35 | 42.88822 | 12.40932 | 4484 ft | 230 kts | 39° |
| 2026-05-08 10:35 | 42.90044 | 12.42303 | 4137 ft | 225 kts | 39° |
| 2026-05-08 10:35 | 42.91239 | 12.43645 | 3794 ft | 220 kts | 39° |
| 2026-05-08 10:36 | 42.92455 | 12.44873 | 3451 ft | 217 kts | 30° |
| 2026-05-08 10:36 | 42.93804 | 12.45732 | 3152 ft | 211 kts | 20° |
| 2026-05-08 10:36 | 42.95184 | 12.46312 | 2889 ft | 205 kts | 16° |
| 2026-05-08 10:36 | 42.96510 | 12.46768 | 2773 ft | 188 kts | 15° |
| 2026-05-08 10:37 | 42.97718 | 12.47171 | 2818 ft | 170 kts | 16° |
| 2026-05-08 10:37 | 42.98783 | 12.47536 | 2782 ft | 148 kts | 16° |
| 2026-05-08 10:37 | 42.99737 | 12.47868 | 2692 ft | 136 kts | 17° |
| 2026-05-08 10:37 | 43.00646 | 12.48189 | 2496 ft | 132 kts | 17° |
| 2026-05-08 10:38 | 43.01539 | 12.48503 | 2298 ft | 131 kts | 17° |
| 2026-05-08 10:38 | 43.02412 | 12.48809 | 2115 ft | 131 kts | 17° |
| 2026-05-08 10:38 | 43.03296 | 12.49120 | 1923 ft | 130 kts | 17° |
| 2026-05-08 10:38 | 43.04184 | 12.49428 | 1723 ft | 130 kts | 18° |
| 2026-05-08 10:39 | 43.05063 | 12.49737 | 1544 ft | 130 kts | 17° |
| 2026-05-08 10:39 | 43.05942 | 12.50042 | 1356 ft | 130 kts | 17° |
| 2026-05-08 10:39 | 43.06827 | 12.50339 | 1143 ft | 131 kts | 15° |
| 2026-05-08 10:39 | 43.07719 | 12.50654 | 985 ft | 129 kts | 17° |
| 2026-05-08 10:40 | 43.08600 | 12.50969 | 780 ft | 130 kts | 19° |
| 2026-05-08 10:40 | 43.09451 | 12.51269 | 701 ft | 118 kts | 18° |
| 2026-05-08 10:40 | 43.10111 | 12.51506 | 709 ft | 72 kts | 14° |
| 2026-05-08 10:40 | 43.10441 | 12.51620 | 714 ft | 36 kts | 13° |
| 2026-05-08 10:41 | 43.10659 | 12.51695 | 716 ft | 23 kts | 13° |
| 2026-05-08 10:41 | 43.10757 | 12.51691 | 718 ft | 12 kts | 303° |
| 2026-05-08 10:41 | 43.10782 | 12.51568 | 717 ft | 13 kts | 271° |
| 2026-05-08 10:41 | 43.10718 | 12.51483 | 716 ft | 14 kts | 194° |
| 2026-05-08 10:42 | 43.10615 | 12.51447 | 715 ft | 15 kts | 194° |
| 2026-05-08 10:42 | 43.10506 | 12.51409 | 714 ft | 16 kts | 194° |
| 2026-05-08 10:42 | 43.10391 | 12.51369 | 712 ft | 17 kts | 193° |
| 2026-05-08 10:42 | 43.10271 | 12.51326 | 710 ft | 18 kts | 194° |
| 2026-05-08 10:43 | 43.10144 | 12.51282 | 708 ft | 19 kts | 193° |
| 2026-05-08 10:43 | 43.10015 | 12.51237 | 706 ft | 19 kts | 194° |
| 2026-05-08 10:43 | 43.09879 | 12.51190 | 705 ft | 20 kts | 194° |
| 2026-05-08 10:43 | 43.09767 | 12.51136 | 703 ft | 15 kts | 229° |
| 2026-05-08 10:44 | 43.09719 | 12.51001 | 702 ft | 16 kts | 245° |
| 2026-05-08 10:44 | 43.09672 | 12.50854 | 701 ft | 17 kts | 245° |
| 2026-05-08 10:44 | 43.09621 | 12.50700 | 700 ft | 18 kts | 245° |
| 2026-05-08 10:44 | 43.09568 | 12.50542 | 699 ft | 17 kts | 245° |
| 2026-05-08 10:45 | 43.09554 | 12.50430 | 698 ft | 10 kts | 284° |
| 2026-05-08 10:45 | 43.09572 | 12.50356 | 698 ft | 4 kts | 286° |
| 2026-05-08 10:45 | 43.09576 | 12.50339 | 698 ft | 0 kts | 288° |